M I D A S
Marine Information and Data Acquisition System
Tripno 1706 of the Zeeleeuw from 2009-06-05 06:34:45 to 2009-06-05 17:00:00
Back to CruiseResearch ActivitiesStationsMapUnderway DataData graphs

EquipmentUnitsComment
TimeDGPSUTC
LatitudeDGPSDM.mWGS84
LongitudeDGPSDM.mWGS84
HeadingGyrodeg 
SOGDGPSknotsSpeed over ground
COGDGPSdegCourse over ground
DepthEcho soundermeters200 kHz
Missing or incorrect values are displayed as -999
Navigation data collected by the RV Zeeleeuw from 2009-06-05 05:51:51 to 2009-06-05 16:52:22
                                                                                    Next 1000 lines
Time Latitude Longitude Heading SOG COG Depth
2009-06-05 05:52:01 51°13.66 2°55.958 126.4 -999 3 -999
2009-06-05 05:52:06 51°13.66 2°55.958 126.3 -999 284 -999
2009-06-05 05:52:11 51°13.66 2°55.958 126.3 0.2 343 -999
2009-06-05 05:52:16 51°13.66 2°55.958 126.3 0.1 341 -999
2009-06-05 05:52:21 51°13.66 2°55.958 126.3 0.1 324 -999
2009-06-05 05:52:26 51°13.66 2°55.958 126.3 -999 358 -999
2009-06-05 05:52:31 51°13.66 2°55.958 126.3 -999 160 -999
2009-06-05 05:52:36 51°13.66 2°55.958 126.3 -999 340 -999
2009-06-05 05:52:41 51°13.66 2°55.958 126.3 -999 336 -999
2009-06-05 05:52:46 51°13.66 2°55.958 126.3 -999 136 -999
2009-06-05 05:52:51 51°13.661 2°55.958 126.3 -999 167 -999
2009-06-05 05:52:56 51°13.661 2°55.958 126.3 -999 332 -999
2009-06-05 05:53:01 51°13.661 2°55.958 126.3 -999 343 -999
2009-06-05 05:53:06 51°13.661 2°55.958 126.3 -999 116 -999
2009-06-05 05:53:11 51°13.661 2°55.958 126.3 -999 325 -999
2009-06-05 05:53:16 51°13.661 2°55.958 126.3 -999 138 -999
2009-06-05 05:53:21 51°13.662 2°55.958 126.3 0.1 337 -999
2009-06-05 05:53:26 51°13.662 2°55.958 126.3 -999 342 -999
2009-06-05 05:53:31 51°13.662 2°55.958 126.3 -999 327 -999
2009-06-05 05:53:36 51°13.662 2°55.958 126.3 -999 338 -999
2009-06-05 05:53:41 51°13.662 2°55.958 126.3 -999 30 -999
2009-06-05 05:53:46 51°13.662 2°55.958 126.3 -999 109 -999
2009-06-05 05:53:51 51°13.662 2°55.958 126.3 -999 329 -999
2009-06-05 05:53:56 51°13.662 2°55.959 126.2 -999 154 -999
2009-06-05 05:54:01 51°13.662 2°55.959 126.2 0.1 162 -999
2009-06-05 05:54:06 51°13.662 2°55.959 126.2 -999 141 -999
2009-06-05 05:54:11 51°13.662 2°55.959 126.2 0.1 330 -999
2009-06-05 05:54:16 51°13.662 2°55.959 126.2 0.1 337 -999
2009-06-05 05:54:21 51°13.662 2°55.959 126.2 0.1 163 -999
2009-06-05 05:54:26 51°13.662 2°55.959 126.2 -999 155 -999
2009-06-05 05:54:31 51°13.662 2°55.959 126.2 -999 140 -999
2009-06-05 05:54:36 51°13.662 2°55.959 126.3 -999 240 -999
2009-06-05 05:54:41 51°13.662 2°55.959 126.3 -999 26 -999
2009-06-05 05:54:46 51°13.662 2°55.959 126.3 -999 346 -999
2009-06-05 05:54:51 51°13.662 2°55.959 126.3 -999 167 -999
2009-06-05 05:54:56 51°13.662 2°55.959 126.3 0.1 340 -999
2009-06-05 05:55:01 51°13.662 2°55.959 126.3 -999 329 -999
2009-06-05 05:55:06 51°13.662 2°55.959 126.2 -999 241 -999
2009-06-05 05:55:11 51°13.662 2°55.959 126.2 -999 327 -999
2009-06-05 05:55:16 51°13.662 2°55.96 126.2 -999 30 -999
2009-06-05 05:55:21 51°13.662 2°55.96 126.2 -999 178 -999
2009-06-05 05:55:26 51°13.662 2°55.96 126.2 -999 36 -999
2009-06-05 05:55:31 51°13.662 2°55.96 126.2 0.1 140 -999
2009-06-05 05:55:36 51°13.663 2°55.96 126.2 -999 207 -999
2009-06-05 05:55:42 51°13.663 2°55.96 126.2 -999 79 -999
2009-06-05 05:55:46 51°13.663 2°55.96 126.2 -999 200 -999
2009-06-05 05:55:51 51°13.663 2°55.96 126.2 0.1 332 -999
2009-06-05 05:55:56 51°13.663 2°55.96 126.2 -999 338 -999
2009-06-05 05:56:02 51°13.663 2°55.96 126.2 -999 109 -999
2009-06-05 05:56:06 51°13.663 2°55.96 126.2 -999 331 -999
2009-06-05 05:56:11 51°13.663 2°55.96 126.2 -999 346 -999
2009-06-05 05:56:16 51°13.663 2°55.96 126.2 0.1 342 -999
2009-06-05 05:56:21 51°13.663 2°55.96 126.2 -999 335 -999
2009-06-05 05:56:26 51°13.663 2°55.96 126.3 -999 347 -999
2009-06-05 05:56:31 51°13.663 2°55.96 126.3 -999 327 -999
2009-06-05 05:56:36 51°13.663 2°55.96 126.3 -999 340 -999
2009-06-05 05:56:41 51°13.663 2°55.96 126.3 -999 336 -999
2009-06-05 05:56:46 51°13.663 2°55.96 126.3 -999 335 -999
2009-06-05 05:56:51 51°13.663 2°55.96 126.4 -999 157 -999
2009-06-05 05:56:56 51°13.663 2°55.96 126.4 -999 348 -999
2009-06-05 05:57:01 51°13.663 2°55.96 126.4 -999 333 -999
2009-06-05 05:57:06 51°13.663 2°55.96 126.4 -999 144 -999
2009-06-05 05:57:11 51°13.663 2°55.96 126.4 -999 276 -999
2009-06-05 05:57:15 51°13.663 2°55.96 126.4 -999 13 -999
2009-06-05 05:57:20 51°13.663 2°55.96 126.4 -999 2 -999
2009-06-05 05:57:26 51°13.662 2°55.96 126.4 -999 92 -999
2009-06-05 05:57:31 51°13.662 2°55.96 126.4 -999 358 -999
2009-06-05 05:57:36 51°13.662 2°55.96 126.4 0.1 165 -999
2009-06-05 05:57:41 51°13.662 2°55.96 126.4 -999 127 -999
2009-06-05 05:57:46 51°13.662 2°55.96 126.4 -999 144 -999
2009-06-05 05:57:51 51°13.662 2°55.96 126.4 -999 157 -999
2009-06-05 05:57:55 51°13.662 2°55.96 126.4 -999 133 -999
2009-06-05 05:58:00 51°13.662 2°55.96 126.4 -999 169 -999
2009-06-05 05:58:05 51°13.662 2°55.96 126.4 -999 153 -999
2009-06-05 05:58:11 51°13.663 2°55.96 126.4 -999 266 -999
2009-06-05 05:58:16 51°13.663 2°55.961 126.4 -999 131 -999
2009-06-05 05:58:21 51°13.663 2°55.96 126.4 0.1 171 -999
2009-06-05 05:58:26 51°13.663 2°55.96 126.4 -999 105 -999
2009-06-05 05:58:31 51°13.663 2°55.961 126.4 -999 157 -999
2009-06-05 05:58:36 51°13.662 2°55.961 126.4 0.1 155 -999
2009-06-05 05:58:40 51°13.662 2°55.961 126.4 0.1 155 -999
2009-06-05 05:58:45 51°13.662 2°55.961 126.3 0.1 144 -999
2009-06-05 05:58:51 51°13.662 2°55.961 126.3 0.1 143 -999
2009-06-05 05:58:56 51°13.663 2°55.96 126.3 -999 353 -999
2009-06-05 05:59:01 51°13.663 2°55.96 126.3 -999 224 -999
2009-06-05 05:59:06 51°13.663 2°55.96 126.3 -999 243 -999
2009-06-05 05:59:11 51°13.663 2°55.96 126.3 -999 151 -999
2009-06-05 05:59:16 51°13.662 2°55.96 126.3 0.1 151 -999
2009-06-05 05:59:21 51°13.662 2°55.96 126.3 -999 168 -999
2009-06-05 05:59:26 51°13.662 2°55.96 126.3 -999 332 -999
2009-06-05 05:59:31 51°13.662 2°55.96 126.3 -999 191 -999
2009-06-05 05:59:36 51°13.662 2°55.96 126.3 0.1 148 -999
2009-06-05 05:59:41 51°13.663 2°55.96 126.3 0.1 336 -999
2009-06-05 05:59:46 51°13.662 2°55.96 126.3 -999 136 -999
2009-06-05 05:59:51 51°13.662 2°55.96 126.3 0.1 161 -999
2009-06-05 05:59:56 51°13.662 2°55.96 126.3 0.2 150 -999
2009-06-05 06:00:01 51°13.662 2°55.96 126.3 0.1 157 -999
2009-06-05 06:00:06 51°13.663 2°55.96 126.3 -999 138 -999
2009-06-05 06:00:11 51°13.663 2°55.959 126.3 -999 358 -999
2009-06-05 06:00:16 51°13.663 2°55.959 126.3 0.1 336 -999
2009-06-05 06:00:21 51°13.663 2°55.959 126.2 -999 28 -999
2009-06-05 06:00:26 51°13.663 2°55.959 126.2 0.1 156 -999
2009-06-05 06:00:31 51°13.663 2°55.959 126.2 -999 329 -999
2009-06-05 06:00:36 51°13.663 2°55.959 126.2 -999 169 -999
2009-06-05 06:00:41 51°13.662 2°55.96 126.2 0.1 156 -999
2009-06-05 06:00:46 51°13.662 2°55.959 126.2 0.1 157 -999
2009-06-05 06:00:51 51°13.662 2°55.96 126.2 0.1 144 -999
2009-06-05 06:00:56 51°13.662 2°55.959 126.2 0.1 333 -999
2009-06-05 06:01:01 51°13.662 2°55.959 126.2 0.1 330 -999
2009-06-05 06:01:06 51°13.662 2°55.959 126.2 0.1 152 -999
2009-06-05 06:01:12 51°13.662 2°55.96 126.2 -999 136 -999
2009-06-05 06:01:16 51°13.662 2°55.96 126.2 0.1 152 -999
2009-06-05 06:01:21 51°13.662 2°55.959 126.2 0.1 343 -999
2009-06-05 06:01:26 51°13.662 2°55.959 126.2 -999 330 -999
2009-06-05 06:01:31 51°13.662 2°55.959 126.2 0.1 326 -999
2009-06-05 06:01:36 51°13.662 2°55.96 126.2 0.1 342 -999
2009-06-05 06:01:41 51°13.662 2°55.96 126.2 -999 233 -999
2009-06-05 06:01:46 51°13.662 2°55.96 126.3 -999 351 -999
2009-06-05 06:01:51 51°13.662 2°55.96 126.3 -999 298 -999
2009-06-05 06:01:56 51°13.662 2°55.96 126.3 -999 166 -999
2009-06-05 06:02:01 51°13.662 2°55.96 126.3 -999 334 -999
2009-06-05 06:02:06 51°13.662 2°55.96 126.3 -999 331 -999
2009-06-05 06:02:11 51°13.662 2°55.96 126.3 -999 143 -999
2009-06-05 06:02:16 51°13.662 2°55.96 126.3 0.1 168 -999
2009-06-05 06:02:21 51°13.662 2°55.96 126.3 -999 138 -999
2009-06-05 06:02:26 51°13.662 2°55.96 126.3 -999 320 -999
2009-06-05 06:02:32 51°13.662 2°55.96 126.3 0.1 334 -999
2009-06-05 06:02:36 51°13.662 2°55.96 126.3 -999 139 -999
2009-06-05 06:02:41 51°13.662 2°55.96 126.3 -999 297 -999
2009-06-05 06:02:46 51°13.662 2°55.96 126.3 -999 159 -999
2009-06-05 06:02:51 51°13.662 2°55.96 126.3 0.1 340 -999
2009-06-05 06:02:56 51°13.662 2°55.96 126.3 0.1 336 -999
2009-06-05 06:03:02 51°13.662 2°55.96 126.3 -999 312 -999
2009-06-05 06:03:06 51°13.662 2°55.96 126.3 -999 349 -999
2009-06-05 06:03:11 51°13.662 2°55.96 126.3 0.1 336 -999
2009-06-05 06:03:16 51°13.662 2°55.96 126.3 0.1 329 -999
2009-06-05 06:03:21 51°13.662 2°55.96 126.3 -999 354 -999
2009-06-05 06:03:26 51°13.662 2°55.96 126.3 0.1 340 -999
2009-06-05 06:03:31 51°13.662 2°55.96 126.3 -999 329 -999
2009-06-05 06:03:36 51°13.662 2°55.96 126.3 -999 307 -999
2009-06-05 06:03:42 51°13.662 2°55.96 126.3 -999 261 -999
2009-06-05 06:03:46 51°13.662 2°55.96 126.3 -999 162 -999
2009-06-05 06:03:51 51°13.662 2°55.96 126.3 -999 135 -999
2009-06-05 06:03:56 51°13.662 2°55.96 126.3 0.1 152 -999
2009-06-05 06:04:01 51°13.662 2°55.96 126.3 0.1 161 -999
2009-06-05 06:04:06 51°13.663 2°55.959 126.3 -999 336 -999
2009-06-05 06:04:11 51°13.663 2°55.959 126.3 0.1 326 -999
2009-06-05 06:04:16 51°13.663 2°55.959 126.3 -999 140 -999
2009-06-05 06:04:21 51°13.663 2°55.959 126.3 -999 304 -999
2009-06-05 06:04:26 51°13.663 2°55.959 126.2 0.1 340 -999
2009-06-05 06:04:31 51°13.663 2°55.959 126.2 0.1 167 -999
2009-06-05 06:04:36 51°13.663 2°55.959 126.2 -999 63 -999
2009-06-05 06:04:40 51°13.663 2°55.959 126.2 -999 26 -999
2009-06-05 06:04:46 51°13.663 2°55.959 126.2 -999 147 -999
2009-06-05 06:04:51 51°13.663 2°55.959 126.2 -999 203 -999
2009-06-05 06:04:56 51°13.663 2°55.959 126.2 0.1 138 -999
2009-06-05 06:05:00 51°13.663 2°55.959 126.2 0.1 134 -999
2009-06-05 06:05:06 51°13.663 2°55.959 126.2 -999 101 -999
2009-06-05 06:05:11 51°13.663 2°55.959 126.2 0.1 346 -999
2009-06-05 06:05:16 51°13.663 2°55.959 126.2 0.1 1 -999
2009-06-05 06:05:22 51°13.663 2°55.959 126.2 0.1 177 -999
2009-06-05 06:05:26 51°13.663 2°55.959 126.2 -999 319 -999
2009-06-05 06:05:31 51°13.663 2°55.959 126.1 0.1 319 -999
2009-06-05 06:05:36 51°13.663 2°55.959 126.1 0.1 17 -999
2009-06-05 06:05:41 51°13.663 2°55.959 126.1 -999 53 -999
2009-06-05 06:05:46 51°13.663 2°55.959 126.1 0.1 187 -999
2009-06-05 06:05:51 51°13.663 2°55.959 126.1 -999 265 -999
2009-06-05 06:05:56 51°13.663 2°55.958 126.2 0.1 353 -999
2009-06-05 06:06:02 51°13.663 2°55.958 126.2 -999 356 -999
2009-06-05 06:06:06 51°13.663 2°55.958 126.2 0.1 184 -999
2009-06-05 06:06:11 51°13.663 2°55.958 126.3 0.1 240 -999
2009-06-05 06:06:16 51°13.663 2°55.959 126.3 -999 251 -999
2009-06-05 06:06:21 51°13.664 2°55.959 126.3 0.1 350 -999
2009-06-05 06:06:26 51°13.663 2°55.959 126.3 -999 112 -999
2009-06-05 06:06:31 51°13.663 2°55.959 126.3 -999 207 -999
2009-06-05 06:06:36 51°13.664 2°55.958 126.3 0.1 322 -999
2009-06-05 06:06:42 51°13.664 2°55.959 126.3 0.1 306 -999
2009-06-05 06:06:46 51°13.664 2°55.959 126.3 0.1 1 -999
2009-06-05 06:06:51 51°13.663 2°55.959 126.3 0.1 2 -999
2009-06-05 06:06:56 51°13.663 2°55.959 126.3 -999 319 -999
2009-06-05 06:07:01 51°13.663 2°55.959 126.3 -999 290 -999
2009-06-05 06:07:06 51°13.663 2°55.959 126.3 -999 271 -999
2009-06-05 06:07:12 51°13.663 2°55.96 126.3 -999 339 -999
2009-06-05 06:07:16 51°13.662 2°55.96 126.3 -999 343 -999
2009-06-05 06:07:21 51°13.663 2°55.96 126.3 0.1 16 -999
2009-06-05 06:07:26 51°13.662 2°55.96 126.3 -999 125 -999
2009-06-05 06:07:31 51°13.662 2°55.96 126.3 0.1 168 -999
2009-06-05 06:07:36 51°13.662 2°55.96 126.3 -999 43 -999
2009-06-05 06:07:41 51°13.662 2°55.96 126.3 0.1 336 -999
2009-06-05 06:07:46 51°13.662 2°55.96 126.3 0.2 332 -999
2009-06-05 06:07:52 51°13.662 2°55.961 126.4 0.1 158 -999
2009-06-05 06:07:56 51°13.662 2°55.961 126.4 -999 47 -999
2009-06-05 06:08:01 51°13.662 2°55.961 126.4 0.1 349 -999
2009-06-05 06:08:06 51°13.662 2°55.961 126.4 0.1 192 -999
2009-06-05 06:08:11 51°13.662 2°55.961 126.4 -999 147 -999
2009-06-05 06:08:16 51°13.662 2°55.961 126.3 -999 132 -999
2009-06-05 06:08:21 51°13.662 2°55.961 126.3 -999 169 -999
2009-06-05 06:08:26 51°13.662 2°55.961 126.3 0.1 346 -999
2009-06-05 06:08:31 51°13.662 2°55.961 126.2 0.1 349 -999
2009-06-05 06:08:36 51°13.662 2°55.961 126.2 -999 251 -999
2009-06-05 06:08:41 51°13.662 2°55.961 126.2 0.1 150 -999
2009-06-05 06:08:46 51°13.662 2°55.961 126.1 0.1 159 -999
2009-06-05 06:08:52 51°13.662 2°55.961 126.1 -999 197 -999
2009-06-05 06:08:56 51°13.662 2°55.961 126.1 -999 68 -999
2009-06-05 06:09:01 51°13.662 2°55.961 126.1 0.1 154 -999
2009-06-05 06:09:06 51°13.661 2°55.961 126.1 0.1 159 -999
2009-06-05 06:09:11 51°13.662 2°55.961 126.1 0.1 163 -999
2009-06-05 06:09:16 51°13.662 2°55.961 126.1 -999 335 -999
2009-06-05 06:09:21 51°13.662 2°55.961 126.1 -999 318 -999
2009-06-05 06:09:26 51°13.662 2°55.961 126.1 -999 329 -999
2009-06-05 06:09:31 51°13.662 2°55.961 126.1 0.1 335 -999
2009-06-05 06:09:36 51°13.662 2°55.961 126.1 0.1 203 -999
2009-06-05 06:09:41 51°13.662 2°55.96 126 -999 229 -999
2009-06-05 06:09:46 51°13.662 2°55.961 126 0.1 342 -999
2009-06-05 06:09:51 51°13.662 2°55.961 126 0.1 13 -999
2009-06-05 06:09:56 51°13.662 2°55.96 126 0.1 182 -999
2009-06-05 06:10:01 51°13.662 2°55.96 126 -999 241 -999
2009-06-05 06:10:06 51°13.662 2°55.96 126 -999 262 -999
2009-06-05 06:10:11 51°13.662 2°55.96 126 0.1 160 -999
2009-06-05 06:10:16 51°13.661 2°55.96 126 0.2 167 -999
2009-06-05 06:10:21 51°13.662 2°55.96 126 0.1 157 -999
2009-06-05 06:10:26 51°13.662 2°55.96 126 0.1 352 -999
2009-06-05 06:10:31 51°13.662 2°55.96 126 0.1 331 -999
2009-06-05 06:10:36 51°13.662 2°55.96 126.1 -999 154 -999
2009-06-05 06:10:41 51°13.662 2°55.959 126.1 0.1 291 -999
2009-06-05 06:10:46 51°13.662 2°55.959 126.1 -999 314 -999
2009-06-05 06:10:51 51°13.662 2°55.959 126.1 -999 87 -999
2009-06-05 06:10:56 51°13.662 2°55.96 126.1 0.1 158 -999
2009-06-05 06:11:02 51°13.662 2°55.959 126.1 0.1 191 -999
2009-06-05 06:11:06 51°13.662 2°55.959 126.1 -999 203 -999
2009-06-05 06:11:11 51°13.662 2°55.959 126.1 -999 226 -999
2009-06-05 06:11:16 51°13.662 2°55.959 126.1 0.1 349 -999
2009-06-05 06:11:21 51°13.662 2°55.959 126.1 0.1 137 -999
2009-06-05 06:11:26 51°13.662 2°55.959 126.1 -999 138 -999
2009-06-05 06:11:31 51°13.662 2°55.959 126.1 -999 52 -999
2009-06-05 06:11:36 51°13.662 2°55.959 126.1 0.1 339 -999
2009-06-05 06:11:41 51°13.663 2°55.959 126.1 0.1 358 -999
2009-06-05 06:11:46 51°13.662 2°55.96 126.1 -999 112 -999
2009-06-05 06:11:51 51°13.662 2°55.96 126.1 0.1 166 -999
2009-06-05 06:11:56 51°13.663 2°55.96 126.1 -999 9 -999
2009-06-05 06:12:01 51°13.663 2°55.96 126.1 0.1 16 -999
2009-06-05 06:12:05 51°13.663 2°55.96 126.1 0.1 157 4.8
2009-06-05 06:12:10 51°13.663 2°55.96 126.1 0.1 155 4.8
2009-06-05 06:12:16 51°13.663 2°55.96 126.1 -999 147 4.8
2009-06-05 06:12:20 51°13.663 2°55.959 126.1 -999 160 4.8
2009-06-05 06:12:25 51°13.663 2°55.959 126.1 0.1 345 4.8
2009-06-05 06:12:29 51°13.663 2°55.959 126.1 -999 321 4.8
2009-06-05 06:12:34 51°13.663 2°55.959 126.1 -999 1 4.8
2009-06-05 06:12:39 51°13.663 2°55.959 126.1 -999 150 4.8
2009-06-05 06:12:44 51°13.663 2°55.959 126.1 -999 30 4.9
2009-06-05 06:12:49 51°13.663 2°55.959 126.1 0.1 344 4.8
2009-06-05 06:12:54 51°13.663 2°55.959 126.1 -999 315 4.8
2009-06-05 06:12:58 51°13.663 2°55.959 126.1 -999 38 4.8
2009-06-05 06:13:03 51°13.663 2°55.959 126.1 -999 43 5
2009-06-05 06:13:08 51°13.663 2°55.959 126.1 0.1 179 4.8
2009-06-05 06:13:13 51°13.663 2°55.959 126.1 0.1 343 4.8
2009-06-05 06:13:18 51°13.663 2°55.959 126.1 0.1 71 4.9
2009-06-05 06:13:23 51°13.663 2°55.959 126.1 -999 112 4.8
2009-06-05 06:13:28 51°13.664 2°55.959 126.1 -999 18 4.8
2009-06-05 06:13:32 51°13.663 2°55.959 126.1 0.1 173 4.8
2009-06-05 06:13:37 51°13.663 2°55.959 126.1 0.1 158 4.8
2009-06-05 06:13:42 51°13.663 2°55.959 126.1 0.2 151 4.8
2009-06-05 06:13:47 51°13.663 2°55.959 126.2 0.1 160 4.8
2009-06-05 06:13:52 51°13.664 2°55.959 126.2 0.1 159 4.8
2009-06-05 06:13:57 51°13.664 2°55.959 126.2 -999 173 4.8
2009-06-05 06:14:02 51°13.664 2°55.959 126.2 0.1 158 4.8
2009-06-05 06:14:08 51°13.664 2°55.959 126.2 0.1 152 4.8
2009-06-05 06:14:12 51°13.664 2°55.959 126.2 0.1 156 4.9
2009-06-05 06:14:17 51°13.664 2°55.959 126.2 0.1 104 4.8
2009-06-05 06:14:22 51°13.664 2°55.959 126.2 -999 86 4.9
2009-06-05 06:14:26 51°13.664 2°55.959 126.2 -999 112 5
2009-06-05 06:14:32 51°13.664 2°55.958 126.2 -999 233 5.1
2009-06-05 06:14:37 51°13.664 2°55.959 126.2 0.1 175 4.8
2009-06-05 06:14:42 51°13.664 2°55.958 126.2 -999 214 4.8
2009-06-05 06:14:46 51°13.664 2°55.959 126.2 -999 350 4.9
2009-06-05 06:14:52 51°13.664 2°55.959 126.2 0.1 359 5.1
2009-06-05 06:14:57 51°13.664 2°55.959 126.2 -999 332 4.8
2009-06-05 06:15:02 51°13.664 2°55.958 126.2 0.1 331 4.8
2009-06-05 06:15:07 51°13.664 2°55.958 126.2 0.1 353 4.8
2009-06-05 06:15:12 51°13.663 2°55.958 126.2 -999 165 4.8
2009-06-05 06:15:17 51°13.664 2°55.958 126.2 -999 352 4.8
2009-06-05 06:15:22 51°13.664 2°55.958 126.2 0.2 349 4.9
2009-06-05 06:15:27 51°13.664 2°55.958 126.2 0.1 354 4.9
2009-06-05 06:15:32 51°13.663 2°55.958 126.2 -999 28 4.9
2009-06-05 06:15:37 51°13.663 2°55.958 126.2 -999 75 4.9
2009-06-05 06:15:42 51°13.664 2°55.958 126.2 0.1 7 5
2009-06-05 06:15:47 51°13.663 2°55.958 126.2 0.1 344 4.9
2009-06-05 06:15:52 51°13.663 2°55.958 126.2 -999 164 4.9
2009-06-05 06:15:58 51°13.663 2°55.959 126.2 -999 35 4.9
2009-06-05 06:16:02 51°13.663 2°55.959 126.2 -999 153 5
2009-06-05 06:16:07 51°13.663 2°55.958 126.2 0.1 319 4.8
2009-06-05 06:16:12 51°13.663 2°55.959 126.2 -999 340 4.9
2009-06-05 06:16:18 51°13.664 2°55.959 126.2 -999 348 4.9
2009-06-05 06:16:22 51°13.664 2°55.959 126.2 0.1 327 4.9
2009-06-05 06:16:26 51°13.664 2°55.959 126.2 0.1 331 4.8
2009-06-05 06:16:32 51°13.664 2°55.959 126.2 0.1 305 4.8
2009-06-05 06:16:38 51°13.663 2°55.959 126.2 0.1 212 4.9
2009-06-05 06:16:42 51°13.664 2°55.959 126.2 -999 251 4.8
2009-06-05 06:16:46 51°13.663 2°55.959 126.2 0.1 213 4.9
2009-06-05 06:16:52 51°13.663 2°55.959 126.1 -999 190 4.9
2009-06-05 06:16:57 51°13.663 2°55.959 126 0.1 138 4.9
2009-06-05 06:17:02 51°13.663 2°55.959 125.9 0.1 142 4.9
2009-06-05 06:17:07 51°13.663 2°55.959 125.9 0.1 145 4.9
2009-06-05 06:17:12 51°13.663 2°55.959 125.9 0.1 62 4.9
2009-06-05 06:17:18 51°13.663 2°55.959 125.9 0.1 356 4.9
2009-06-05 06:17:22 51°13.663 2°55.959 125.9 0.1 352 5
2009-06-05 06:17:27 51°13.663 2°55.959 125.9 -999 134 5
2009-06-05 06:17:32 51°13.663 2°55.959 126 0.1 109 4.8
2009-06-05 06:17:37 51°13.663 2°55.959 126 -999 1 4.8
2009-06-05 06:17:42 51°13.663 2°55.959 126 -999 227 4.8
2009-06-05 06:17:48 51°13.663 2°55.959 126 -999 123 4.9
2009-06-05 06:17:52 51°13.663 2°55.959 126 0.1 150 4.9
2009-06-05 06:17:57 51°13.663 2°55.959 126 0.1 146 4.9
2009-06-05 06:18:02 51°13.663 2°55.959 126 0.1 1 4.9
2009-06-05 06:18:06 51°13.663 2°55.959 125.9 0.1 8 4.9
2009-06-05 06:18:12 51°13.663 2°55.959 125.9 0.1 33 4.9
2009-06-05 06:18:17 51°13.663 2°55.959 125.9 0.1 160 4.9
2009-06-05 06:18:22 51°13.663 2°55.959 125.9 0.2 163 4.9
2009-06-05 06:18:26 51°13.663 2°55.959 125.9 -999 72 4.9
2009-06-05 06:18:32 51°13.663 2°55.959 125.9 -999 38 4.9
2009-06-05 06:18:38 51°13.663 2°55.959 125.9 -999 345 4.9
2009-06-05 06:18:42 51°13.663 2°55.959 125.9 -999 296 4.9
2009-06-05 06:18:46 51°13.663 2°55.959 125.9 0.1 145 4.9
2009-06-05 06:18:52 51°13.663 2°55.959 125.9 0.2 162 4.9
2009-06-05 06:18:57 51°13.663 2°55.959 126 0.1 194 4.9
2009-06-05 06:19:02 51°13.663 2°55.959 126.1 -999 343 5
2009-06-05 06:19:08 51°13.663 2°55.959 126.1 0.2 357 5
2009-06-05 06:19:12 51°13.663 2°55.959 126.1 0.1 303 4.9
2009-06-05 06:19:17 51°13.663 2°55.959 126.1 -999 340 4.9
2009-06-05 06:19:22 51°13.663 2°55.959 126.1 0.1 327 4.9
2009-06-05 06:19:27 51°13.663 2°55.959 126.1 0.1 328 4.9
2009-06-05 06:19:32 51°13.662 2°55.959 126.1 -999 141 5
2009-06-05 06:19:38 51°13.662 2°55.96 126.1 0.1 146 4.9
2009-06-05 06:19:43 51°13.662 2°55.96 126 0.1 164 4.9
2009-06-05 06:19:47 51°13.663 2°55.959 126 0.2 354 5
2009-06-05 06:19:53 51°13.662 2°55.959 125.9 -999 241 5.1
2009-06-05 06:19:58 51°13.662 2°55.96 125.9 0.1 167 4.9
2009-06-05 06:20:03 51°13.662 2°55.96 125.9 -999 13 4.9
2009-06-05 06:20:07 51°13.662 2°55.96 125.9 -999 34 4.9
2009-06-05 06:20:13 51°13.662 2°55.96 125.8 -999 315 4.9
2009-06-05 06:20:18 51°13.662 2°55.96 125.7 0.1 182 4.9
2009-06-05 06:20:23 51°13.663 2°55.96 125.7 -999 139 4.9
2009-06-05 06:20:27 51°13.663 2°55.96 125.6 0.1 9 4.9
2009-06-05 06:20:33 51°13.663 2°55.96 125.5 -999 143 4.9
2009-06-05 06:20:38 51°13.663 2°55.96 125.5 -999 77 4.9
2009-06-05 06:20:42 51°13.662 2°55.96 125.5 0.1 158 4.9
2009-06-05 06:20:48 51°13.662 2°55.96 125.5 0.1 166 4.9
2009-06-05 06:20:53 51°13.663 2°55.96 125.4 -999 351 4.9
2009-06-05 06:20:58 51°13.662 2°55.96 125.4 0.1 185 5
2009-06-05 06:21:03 51°13.662 2°55.96 125.4 0.1 212 4.9
2009-06-05 06:21:08 51°13.663 2°55.961 125.3 -999 209 5.1
2009-06-05 06:21:13 51°13.662 2°55.961 125.3 0.1 157 5
2009-06-05 06:21:18 51°13.662 2°55.961 125.2 0.1 161 5
2009-06-05 06:21:23 51°13.663 2°55.961 125.2 -999 265 5
2009-06-05 06:21:27 51°13.663 2°55.961 125.1 0.1 194 5
2009-06-05 06:21:33 51°13.663 2°55.961 125.1 -999 162 5.1
2009-06-05 06:21:38 51°13.663 2°55.961 125.2 0.1 107 5
2009-06-05 06:21:43 51°13.663 2°55.961 125.3 -999 80 4.9
2009-06-05 06:21:48 51°13.662 2°55.961 125.6 -999 42 5.1
2009-06-05 06:21:52 51°13.662 2°55.961 125.7 0.1 177 4.9
2009-06-05 06:21:58 51°13.662 2°55.961 125.8 -999 163 4.9
2009-06-05 06:22:03 51°13.662 2°55.961 125.9 -999 106 4.9
2009-06-05 06:22:08 51°13.662 2°55.961 125.8 -999 120 4.9
2009-06-05 06:22:12 51°13.662 2°55.961 125.6 -999 75 4.9
2009-06-05 06:22:18 51°13.662 2°55.961 125.3 -999 147 5
2009-06-05 06:22:23 51°13.663 2°55.961 125.1 0.1 358 5
2009-06-05 06:22:27 51°13.663 2°55.961 125 -999 60 5.1
2009-06-05 06:22:33 51°13.662 2°55.962 125 0.2 152 5
2009-06-05 06:22:38 51°13.662 2°55.962 125.4 -999 83 5
2009-06-05 06:22:43 51°13.663 2°55.961 125.8 0.2 352 5
2009-06-05 06:22:47 51°13.662 2°55.961 125.9 0.1 307 4.9
2009-06-05 06:22:53 51°13.662 2°55.961 125.7 0.1 120 5
2009-06-05 06:22:58 51°13.662 2°55.961 125.7 0.1 343 5
2009-06-05 06:23:03 51°13.662 2°55.961 125.7 0.1 351 5
2009-06-05 06:23:08 51°13.662 2°55.961 125.8 0.1 315 4.9
2009-06-05 06:23:13 51°13.662 2°55.961 126 0.1 345 5
2009-06-05 06:23:18 51°13.662 2°55.96 126.4 0.1 218 5
2009-06-05 06:23:23 51°13.662 2°55.96 126.4 0.1 267 5
2009-06-05 06:23:27 51°13.662 2°55.96 126.4 -999 279 5
2009-06-05 06:23:33 51°13.662 2°55.96 126.4 0.1 337 5
2009-06-05 06:23:38 51°13.662 2°55.96 126.6 -999 264 5
2009-06-05 06:23:42 51°13.662 2°55.96 126.8 0.1 211 5
2009-06-05 06:23:47 51°13.662 2°55.96 127.1 0.1 217 5.1
2009-06-05 06:23:52 51°13.662 2°55.96 127.4 -999 323 5.1
2009-06-05 06:23:58 51°13.662 2°55.96 127.8 -999 343 5
2009-06-05 06:24:03 51°13.662 2°55.959 127.9 0.1 354 5
2009-06-05 06:24:07 51°13.662 2°55.959 128.2 -999 306 5
2009-06-05 06:24:12 51°13.662 2°55.959 128.5 -999 301 5
2009-06-05 06:24:18 51°13.662 2°55.959 128.6 0.1 138 5.1
2009-06-05 06:24:23 51°13.662 2°55.959 128.6 0.1 141 5.1
2009-06-05 06:24:27 51°13.662 2°55.959 128.1 -999 357 5
2009-06-05 06:24:32 51°13.662 2°55.959 127.6 -999 125 5.1
2009-06-05 06:24:38 51°13.662 2°55.96 126.9 0.1 82 5
2009-06-05 06:24:43 51°13.662 2°55.96 126 -999 46 5
2009-06-05 06:24:47 51°13.662 2°55.96 125.2 -999 102 5
2009-06-05 06:24:53 51°13.662 2°55.96 124.8 0.1 157 4.9
2009-06-05 06:24:58 51°13.662 2°55.96 124.2 -999 14 4.9
2009-06-05 06:25:03 51°13.662 2°55.96 123.6 -999 140 5
2009-06-05 06:25:07 51°13.662 2°55.96 123.1 -999 167 5
2009-06-05 06:25:13 51°13.661 2°55.96 122.6 0.2 169 5
2009-06-05 06:25:18 51°13.661 2°55.96 122.1 0.1 175 5
2009-06-05 06:25:23 51°13.662 2°55.96 121.5 -999 199 5.1
2009-06-05 06:25:27 51°13.662 2°55.96 121.1 0.1 336 5.2
2009-06-05 06:25:33 51°13.662 2°55.96 120.5 0.1 338 5
2009-06-05 06:25:38 51°13.661 2°55.96 119.9 0.1 187 5.1
2009-06-05 06:25:42 51°13.661 2°55.96 119.5 0.1 173 5
2009-06-05 06:25:47 51°13.661 2°55.96 119 0.1 165 5.1
2009-06-05 06:25:53 51°13.661 2°55.96 118.3 0.1 183 5.1
2009-06-05 06:25:58 51°13.661 2°55.96 117.8 0.1 205 5.1
2009-06-05 06:26:03 51°13.661 2°55.96 117.4 0.1 230 5.1
2009-06-05 06:26:07 51°13.661 2°55.96 116.8 -999 192 5.2
2009-06-05 06:26:13 51°13.661 2°55.96 116.2 0.1 169 5
2009-06-05 06:26:18 51°13.661 2°55.96 115.7 0.1 229 5
2009-06-05 06:26:23 51°13.661 2°55.96 115.2 -999 246 5.2
2009-06-05 06:26:27 51°13.661 2°55.96 114.5 0.1 203 5
2009-06-05 06:26:33 51°13.661 2°55.96 114 -999 172 5
2009-06-05 06:26:38 51°13.661 2°55.96 113.4 0.1 158 5
2009-06-05 06:26:43 51°13.661 2°55.959 112.9 -999 180 5
2009-06-05 06:26:48 51°13.661 2°55.959 112.6 0.1 282 5
2009-06-05 06:26:52 51°13.661 2°55.959 112.4 -999 263 5
2009-06-05 06:26:58 51°13.661 2°55.959 112.2 -999 305 5.1
2009-06-05 06:27:03 51°13.661 2°55.959 112.2 -999 296 5.1
2009-06-05 06:27:08 51°13.661 2°55.958 112.2 0.3 285 5.1
2009-06-05 06:27:12 51°13.662 2°55.957 112.4 0.6 293 5
2009-06-05 06:27:18 51°13.662 2°55.955 112.6 0.8 291 5
2009-06-05 06:27:22 51°13.663 2°55.954 112.7 1 292 5.2
2009-06-05 06:27:28 51°13.664 2°55.951 112.9 1.2 292 5.1
2009-06-05 06:27:32 51°13.664 2°55.948 113.2 1.4 295 5.1
2009-06-05 06:27:38 51°13.666 2°55.944 113.2 1.7 296 -999
2009-06-05 06:27:44 51°13.667 2°55.939 113.3 1.9 296 -999
2009-06-05 06:27:50 51°13.668 2°55.935 113.2 2 294 -999
2009-06-05 06:27:55 51°13.67 2°55.93 112.9 2.3 296 -999
2009-06-05 06:28:01 51°13.671 2°55.925 112.3 2.3 294 -999
2009-06-05 06:28:06 51°13.673 2°55.919 111.5 2.7 294 -999
2009-06-05 06:28:11 51°13.674 2°55.913 110.7 2.8 291 -999
2009-06-05 06:28:16 51°13.675 2°55.907 110 2.9 289 -999
2009-06-05 06:28:22 51°13.677 2°55.899 109.3 3 288 -999
2009-06-05 06:28:26 51°13.678 2°55.894 108.8 3.2 289 -999
2009-06-05 06:28:31 51°13.68 2°55.887 108.7 3.3 288 -999
2009-06-05 06:28:36 51°13.681 2°55.88 109 3.5 288 -999
2009-06-05 06:28:41 51°13.683 2°55.872 109.7 3.6 288 -999
2009-06-05 06:28:46 51°13.684 2°55.864 110.5 3.7 290 -999
2009-06-05 06:28:51 51°13.686 2°55.856 110.8 3.8 290 -999
2009-06-05 06:28:56 51°13.688 2°55.849 111.2 3.6 291 -999
2009-06-05 06:29:01 51°13.69 2°55.842 111.9 3.6 292 -999
2009-06-05 06:29:06 51°13.691 2°55.835 112.5 3.3 292 -999
2009-06-05 06:29:11 51°13.692 2°55.829 113.1 3 290 -999
2009-06-05 06:29:16 51°13.694 2°55.823 113.7 3.1 293 -999
2009-06-05 06:29:21 51°13.696 2°55.817 114.9 3 294 8.8
2009-06-05 06:29:26 51°13.698 2°55.811 115.7 3 297 8.8
2009-06-05 06:29:31 51°13.7 2°55.805 116.9 2.9 296 9.1
2009-06-05 06:29:35 51°13.701 2°55.8 118.3 3 298 10.1
2009-06-05 06:29:40 51°13.703 2°55.794 119.5 3 299 10.2
2009-06-05 06:29:45 51°13.706 2°55.789 120.4 3.1 301 5.2
2009-06-05 06:29:51 51°13.708 2°55.782 121.9 3.1 302 -999
2009-06-05 06:29:56 51°13.71 2°55.776 122.8 3.1 302 -999
2009-06-05 06:30:01 51°13.713 2°55.77 123.9 3 301 -999
2009-06-05 06:30:06 51°13.715 2°55.765 124.9 2.8 302 -999
2009-06-05 06:30:11 51°13.716 2°55.76 125.1 2.6 303 -999
2009-06-05 06:30:16 51°13.718 2°55.756 125.3 2 305 -999
2009-06-05 06:30:22 51°13.719 2°55.753 126.5 1.4 302 -999
2009-06-05 06:30:26 51°13.72 2°55.752 129.4 1.3 299 -999
2009-06-05 06:30:31 51°13.721 2°55.749 131.7 1.4 301 4.5
2009-06-05 06:30:35 51°13.722 2°55.747 133.5 1.8 314 11.9
2009-06-05 06:30:41 51°13.725 2°55.742 134.8 2.1 309 11.9
2009-06-05 06:30:46 51°13.727 2°55.738 136 2.4 315 11.6
2009-06-05 06:30:50 51°13.729 2°55.735 137.3 2.6 314 11.8
2009-06-05 06:30:55 51°13.732 2°55.731 138.7 2.7 320 -999
2009-06-05 06:31:02 51°13.736 2°55.725 140.7 2.9 317 -999
2009-06-05 06:31:06 51°13.739 2°55.721 143.1 3.1 322 -999
2009-06-05 06:31:11 51°13.743 2°55.716 144.9 3.4 323 -999
2009-06-05 06:31:16 51°13.748 2°55.711 146.8 3.8 328 -999
2009-06-05 06:31:21 51°13.753 2°55.707 148.8 4 330 -999
2009-06-05 06:31:26 51°13.757 2°55.703 150.4 3.7 331 -999
2009-06-05 06:31:31 51°13.761 2°55.699 151.4 3.6 332 -999
2009-06-05 06:31:36 51°13.766 2°55.695 152 3.6 334 -999
2009-06-05 06:31:41 51°13.77 2°55.692 152.2 3.5 333 -999
2009-06-05 06:31:46 51°13.775 2°55.688 152.2 3.7 334 -999
2009-06-05 06:31:51 51°13.78 2°55.684 152.2 4 334 -999
2009-06-05 06:31:56 51°13.785 2°55.68 152.3 4.1 334 -999
2009-06-05 06:32:01 51°13.79 2°55.677 152.4 4 333 -999
2009-06-05 06:32:06 51°13.795 2°55.673 152.4 3.9 333 -999
2009-06-05 06:32:11 51°13.8 2°55.669 152.5 4 334 -999
2009-06-05 06:32:16 51°13.805 2°55.664 152.7 4 332 -999
2009-06-05 06:32:21 51°13.81 2°55.66 153.1 4.1 332 -999
2009-06-05 06:32:26 51°13.815 2°55.656 153.5 4.1 333 -999
2009-06-05 06:32:31 51°13.821 2°55.652 154 4.2 334 -999
2009-06-05 06:32:36 51°13.825 2°55.648 154.9 4 335 -999
2009-06-05 06:32:41 51°13.83 2°55.645 156.2 3.9 335 -999
2009-06-05 06:32:46 51°13.835 2°55.641 157.8 3.9 337 -999
2009-06-05 06:32:51 51°13.84 2°55.638 159.7 4 337 -999
2009-06-05 06:32:56 51°13.845 2°55.635 161.6 3.8 340 -999
2009-06-05 06:33:01 51°13.85 2°55.633 163.9 3.7 343 -999
2009-06-05 06:33:06 51°13.855 2°55.631 166.5 3.7 345 -999
2009-06-05 06:33:11 51°13.86 2°55.629 169.2 3.8 346 -999
2009-06-05 06:33:16 51°13.865 2°55.628 171.8 3.7 349 -999
2009-06-05 06:33:22 51°13.871 2°55.627 174.3 3.6 353 -999
2009-06-05 06:33:26 51°13.875 2°55.626 176.6 3.5 356 -999
2009-06-05 06:33:31 51°13.88 2°55.626 179 3.4 358 -999
2009-06-05 06:33:36 51°13.884 2°55.626 181.4 3.2 -999 -999
2009-06-05 06:33:42 51°13.889 2°55.626 183.6 3.1 -999 -999
2009-06-05 06:33:46 51°13.892 2°55.626 185.7 3 4 -999
2009-06-05 06:33:51 51°13.896 2°55.627 187.6 2.7 5 -999
2009-06-05 06:33:56 51°13.9 2°55.628 189.2 2.7 9 -999
2009-06-05 06:34:01 51°13.904 2°55.629 190.3 2.7 9 -999
2009-06-05 06:34:06 51°13.908 2°55.629 191.8 2.6 10 4.6
2009-06-05 06:34:11 51°13.911 2°55.63 193 2.4 11 10
2009-06-05 06:34:16 51°13.914 2°55.632 194.1 2.3 14 10
2009-06-05 06:34:21 51°13.917 2°55.633 195.2 2.1 17 9.6
2009-06-05 06:34:26 51°13.92 2°55.634 196.6 2.1 16 10
2009-06-05 06:34:31 51°13.923 2°55.635 198.1 2.1 17 9.8
2009-06-05 06:34:35 51°13.925 2°55.636 199 2 16 9.5
2009-06-05 06:34:40 51°13.927 2°55.637 199.9 1.7 18 9.5
2009-06-05 06:34:45 51°13.929 2°55.638 200.8 1.4 17 9.4
2009-06-05 06:34:50 51°13.93 2°55.638 202.5 1.1 17 9.6
2009-06-05 06:34:55 51°13.932 2°55.639 205.3 0.8 22 9.3
2009-06-05 06:34:59 51°13.932 2°55.639 207.5 0.6 9 9.4
2009-06-05 06:35:04 51°13.933 2°55.639 210.4 0.3 9 9.4
2009-06-05 06:35:09 51°13.933 2°55.639 213.5 0.3 333 9.5
2009-06-05 06:35:14 51°13.933 2°55.638 217.2 0.2 312 9.6
2009-06-05 06:35:19 51°13.933 2°55.638 220 0.4 278 9.5
2009-06-05 06:35:23 51°13.933 2°55.637 223.6 0.5 259 9.5
2009-06-05 06:35:28 51°13.933 2°55.636 227.5 0.5 257 9.5
2009-06-05 06:35:33 51°13.933 2°55.635 231.1 0.5 276 9.5
2009-06-05 06:35:38 51°13.933 2°55.634 234.5 0.3 281 9.5
2009-06-05 06:35:43 51°13.933 2°55.635 236.5 0.1 14 9.5
2009-06-05 06:35:48 51°13.934 2°55.635 239.1 0.5 45 9.6
2009-06-05 06:35:53 51°13.934 2°55.637 241.9 0.8 64 9.7
2009-06-05 06:35:58 51°13.935 2°55.638 244.7 0.8 48 9.8
2009-06-05 06:36:03 51°13.935 2°55.64 247.1 0.7 60 9.7
2009-06-05 06:36:07 51°13.935 2°55.641 249 0.7 55 9.8
2009-06-05 06:36:12 51°13.936 2°55.641 250.5 0.3 66 9.8
2009-06-05 06:36:17 51°13.936 2°55.642 252.4 0.2 37 9.8
2009-06-05 06:36:22 51°13.936 2°55.641 255 0.2 258 9.8
2009-06-05 06:36:27 51°13.936 2°55.641 258.3 0.5 275 9.9
2009-06-05 06:36:32 51°13.937 2°55.639 262.3 0.8 285 10
2009-06-05 06:36:38 51°13.937 2°55.636 267 1 280 9.7
2009-06-05 06:36:42 51°13.937 2°55.634 271.8 1.2 277 9.6
2009-06-05 06:36:47 51°13.937 2°55.631 278 1.4 281 9.9
2009-06-05 06:36:52 51°13.938 2°55.628 282 1.7 290 10
2009-06-05 06:36:57 51°13.939 2°55.624 287.4 1.8 293 10.2
2009-06-05 06:37:02 51°13.94 2°55.621 292.7 1.9 300 10.3
2009-06-05 06:37:07 51°13.942 2°55.617 298.2 2.1 302 10.2
2009-06-05 06:37:12 51°13.943 2°55.613 303.7 2.2 306 10.5
2009-06-05 06:37:18 51°13.946 2°55.608 308.4 2.3 308 10
2009-06-05 06:37:22 51°13.948 2°55.605 312.4 2.6 314 10.2
2009-06-05 06:37:27 51°13.95 2°55.6 315.8 2.7 314 10.1
2009-06-05 06:37:33 51°13.954 2°55.596 318.6 2.8 317 10.2
2009-06-05 06:37:38 51°13.957 2°55.591 320.6 3.1 317 10.4
2009-06-05 06:37:43 51°13.961 2°55.586 322 3.5 321 10.1
2009-06-05 06:37:47 51°13.964 2°55.581 322.7 4 320 10.3
2009-06-05 06:37:52 51°13.969 2°55.575 322.9 4.6 321 10.4
2009-06-05 06:37:58 51°13.976 2°55.567 323.6 5.2 322 10.6
2009-06-05 06:38:03 51°13.982 2°55.56 324.9 5.4 323 10.3
2009-06-05 06:38:07 51°13.987 2°55.554 325.8 5.9 324 10.3
2009-06-05 06:38:12 51°13.994 2°55.545 326 6.2 324 10.2
2009-06-05 06:38:17 51°14.001 2°55.538 326.7 6.4 325 10.3
2009-06-05 06:38:23 51°14.01 2°55.528 327.1 6.6 326 10.2
2009-06-05 06:38:27 51°14.016 2°55.521 327.3 6.7 326 10.2
2009-06-05 06:38:32 51°14.024 2°55.513 327.9 6.9 326 10.3
2009-06-05 06:38:38 51°14.034 2°55.503 328.5 7 327 10.1
2009-06-05 06:38:42 51°14.041 2°55.496 328.8 7.1 327 10.2
2009-06-05 06:38:47 51°14.049 2°55.487 328.8 7.2 327 10.2
2009-06-05 06:38:52 51°14.058 2°55.479 329.2 7.3 328 10.1
2009-06-05 06:38:57 51°14.067 2°55.47 329.8 7.3 328 10.1
2009-06-05 06:39:02 51°14.076 2°55.461 329.8 7.5 327 10.1
2009-06-05 06:39:07 51°14.084 2°55.452 329.8 7.6 329 10.1
2009-06-05 06:39:12 51°14.093 2°55.444 330.5 7.6 329 10.1
2009-06-05 06:39:18 51°14.104 2°55.433 330.8 7.7 329 10
2009-06-05 06:39:22 51°14.112 2°55.427 331.5 7.8 330 10.1
2009-06-05 06:39:27 51°14.121 2°55.418 331.6 7.9 329 10.2
2009-06-05 06:39:32 51°14.131 2°55.409 330.9 7.9 328 10.1
2009-06-05 06:39:38 51°14.142 2°55.397 330.1 8.1 328 10.1
2009-06-05 06:39:42 51°14.15 2°55.39 329.9 8.1 328 10
2009-06-05 06:39:47 51°14.159 2°55.381 329.5 8 327 10
2009-06-05 06:39:53 51°14.17 2°55.369 329.4 8 328 10.1
2009-06-05 06:39:58 51°14.18 2°55.359 329.4 8.1 327 10
2009-06-05 06:40:03 51°14.19 2°55.349 328.6 8.2 326 10
2009-06-05 06:40:07 51°14.197 2°55.34 327.2 8.3 324 10.1
2009-06-05 06:40:12 51°14.206 2°55.33 326.5 8.2 325 10.1
2009-06-05 06:40:18 51°14.217 2°55.317 326.5 8.3 323 10.1
2009-06-05 06:40:23 51°14.226 2°55.306 325.8 8.3 323 10.1
2009-06-05 06:40:27 51°14.234 2°55.296 324.3 8.3 320 10.1
2009-06-05 06:40:32 51°14.242 2°55.284 321.9 8.4 318 10.2
2009-06-05 06:40:37 51°14.251 2°55.271 319.5 8.6 315 10.2
2009-06-05 06:40:43 51°14.261 2°55.254 316.8 8.6 313 10.1
2009-06-05 06:40:47 51°14.267 2°55.243 314.4 8.6 311 10.3
2009-06-05 06:40:52 51°14.274 2°55.229 313.4 8.6 311 10.4
2009-06-05 06:40:57 51°14.282 2°55.214 312.9 8.6 310 10.2
2009-06-05 06:41:03 51°14.292 2°55.196 312 8.8 309 10
2009-06-05 06:41:07 51°14.298 2°55.184 310.9 8.8 309 10.3
2009-06-05 06:41:12 51°14.306 2°55.169 310.4 8.9 309 10.3
2009-06-05 06:41:17 51°14.313 2°55.153 310.4 8.8 308 9.9
2009-06-05 06:41:22 51°14.321 2°55.137 310 8.9 307 9.8
2009-06-05 06:41:27 51°14.328 2°55.121 309 9 306 10
2009-06-05 06:41:32 51°14.336 2°55.105 307.7 9 306 10.1
2009-06-05 06:41:38 51°14.344 2°55.085 306.9 9.2 305 10.4
2009-06-05 06:41:42 51°14.351 2°55.072 307.5 9.4 309 10.4
2009-06-05 06:41:47 51°14.358 2°55.056 308.5 9.4 306 10.2
2009-06-05 06:41:52 51°14.365 2°55.039 308.3 9.3 304 9.8
2009-06-05 06:41:57 51°14.373 2°55.021 307.8 9.4 303 9.6
2009-06-05 06:42:03 51°14.382 2°55.001 307.8 9.5 304 9.8
2009-06-05 06:42:07 51°14.388 2°54.986 307.3 9.7 302 9.5
2009-06-05 06:42:11 51°14.393 2°54.971 305.7 9.8 300 9.9
2009-06-05 06:42:17 51°14.401 2°54.948 303.6 10 298 10.1
2009-06-05 06:42:22 51°14.408 2°54.928 302.3 10.2 298 10.1
2009-06-05 06:42:27 51°14.415 2°54.908 302 10.4 298 9.8
2009-06-05 06:42:32 51°14.421 2°54.887 301.6 10.5 297 9.8
2009-06-05 06:42:37 51°14.427 2°54.866 300.7 10.7 295 9.9
2009-06-05 06:42:42 51°14.435 2°54.845 300.7 10.9 296 10.1
2009-06-05 06:42:47 51°14.441 2°54.823 300.5 11 294 10.2
2009-06-05 06:42:52 51°14.447 2°54.8 299.7 11.1 294 10
2009-06-05 06:42:57 51°14.453 2°54.777 299.6 11.4 293 10.1
2009-06-05 06:43:02 51°14.46 2°54.754 300.5 11.5 295 10.2
2009-06-05 06:43:07 51°14.466 2°54.731 300.4 11.5 293 10.2
2009-06-05 06:43:12 51°14.472 2°54.707 299.6 11.6 293 10.2
2009-06-05 06:43:17 51°14.479 2°54.683 299.4 11.7 292 9.9
2009-06-05 06:43:22 51°14.485 2°54.659 298.9 11.8 293 10
2009-06-05 06:43:27 51°14.492 2°54.636 298.7 11.8 293 10.1
2009-06-05 06:43:32 51°14.498 2°54.611 298.4 11.9 293 9.9
2009-06-05 06:43:37 51°14.504 2°54.587 298.5 11.8 293 9.9
2009-06-05 06:43:42 51°14.51 2°54.563 298.5 11.9 292 10.2
2009-06-05 06:43:47 51°14.517 2°54.538 298.4 11.9 293 10
2009-06-05 06:43:52 51°14.523 2°54.514 298.4 11.9 292 10.3
2009-06-05 06:43:57 51°14.529 2°54.489 298.4 12 292 10.2
2009-06-05 06:44:02 51°14.535 2°54.465 298.9 11.9 293 10.2
2009-06-05 06:44:07 51°14.542 2°54.441 298.9 11.9 292 10.3
2009-06-05 06:44:12 51°14.548 2°54.416 298.7 12 292 10.3
2009-06-05 06:44:17 51°14.554 2°54.391 298.5 12 293 10.2
2009-06-05 06:44:22 51°14.561 2°54.367 298.9 12 293 10.3
2009-06-05 06:44:27 51°14.568 2°54.343 299.4 11.9 294 9.9
2009-06-05 06:44:32 51°14.574 2°54.319 299.8 11.8 294 9.7
2009-06-05 06:44:37 51°14.581 2°54.295 299.8 11.8 295 10.2
2009-06-05 06:44:42 51°14.588 2°54.272 299.6 11.8 294 10.5
2009-06-05 06:44:47 51°14.595 2°54.248 299.6 11.8 294 10.6
2009-06-05 06:44:52 51°14.601 2°54.224 299.8 11.8 294 10.4
2009-06-05 06:44:57 51°14.608 2°54.2 299.1 11.7 293 10
2009-06-05 06:45:02 51°14.615 2°54.177 299.2 11.7 294 10.4
2009-06-05 06:45:07 51°14.621 2°54.153 299.2 11.8 293 10.5
2009-06-05 06:45:12 51°14.627 2°54.128 297.7 11.8 292 10.4
2009-06-05 06:45:17 51°14.633 2°54.104 297.4 11.9 292 10.2
2009-06-05 06:45:22 51°14.639 2°54.08 296.4 11.8 290 10.2
2009-06-05 06:45:27 51°14.645 2°54.055 296.8 11.9 292 10.5
2009-06-05 06:45:32 51°14.65 2°54.031 296.6 11.8 290 10.3
2009-06-05 06:45:37 51°14.657 2°54.007 296.1 11.7 293 10.4
2009-06-05 06:45:42 51°14.663 2°53.983 296.4 11.7 291 10.1
2009-06-05 06:45:47 51°14.668 2°53.959 295.5 11.8 290 10.4
2009-06-05 06:45:52 51°14.674 2°53.934 295.2 11.7 291 10.1
2009-06-05 06:45:57 51°14.68 2°53.91 295.2 11.7 290 10.2
2009-06-05 06:46:02 51°14.686 2°53.885 295.1 11.8 290 10.2
2009-06-05 06:46:07 51°14.691 2°53.861 295.3 11.8 289 10.1
2009-06-05 06:46:12 51°14.696 2°53.836 295.1 11.9 289 9.8
2009-06-05 06:46:17 51°14.701 2°53.81 294.8 11.9 288 9.9
2009-06-05 06:46:22 51°14.707 2°53.786 295 11.9 290 9.6
2009-06-05 06:46:27 51°14.712 2°53.761 295.6 11.9 289 9.6
2009-06-05 06:46:32 51°14.717 2°53.736 295.5 12 287 9.8
2009-06-05 06:46:37 51°14.722 2°53.711 295 12 288 9.6
2009-06-05 06:46:42 51°14.727 2°53.685 294.9 11.9 288 9.2
2009-06-05 06:46:47 51°14.733 2°53.661 295.2 11.9 290 9.4
2009-06-05 06:46:52 51°14.738 2°53.636 296.2 11.9 290 9.3
2009-06-05 06:46:57 51°14.743 2°53.611 295.2 12 287 9.7
2009-06-05 06:47:02 51°14.748 2°53.586 294.8 12 287 9.9
2009-06-05 06:47:07 51°14.753 2°53.561 294.3 11.9 287 9.5
2009-06-05 06:47:12 51°14.758 2°53.535 294 12 288 9.6
2009-06-05 06:47:17 51°14.763 2°53.511 294.5 11.9 287 9.7
2009-06-05 06:47:22 51°14.768 2°53.485 294 12 287 10
2009-06-05 06:47:27 51°14.774 2°53.46 294.4 11.9 288 9.6
2009-06-05 06:47:32 51°14.778 2°53.435 294.3 11.9 287 9.8
2009-06-05 06:47:37 51°14.783 2°53.41 294 12 288 9.9
2009-06-05 06:47:42 51°14.788 2°53.385 293.8 12 287 9.5
2009-06-05 06:47:47 51°14.793 2°53.359 293.8 12.1 287 9.6
2009-06-05 06:47:52 51°14.798 2°53.334 294 12 288 9.2
2009-06-05 06:47:57 51°14.803 2°53.308 293.9 11.9 288 9
2009-06-05 06:48:02 51°14.808 2°53.283 294.4 11.9 289 9.4
2009-06-05 06:48:07 51°14.813 2°53.258 294.4 12.1 288 9.3
2009-06-05 06:48:12 51°14.819 2°53.233 294.9 12 289 9.3
2009-06-05 06:48:17 51°14.823 2°53.208 295 12 288 9.4
2009-06-05 06:48:22 51°14.829 2°53.183 295.2 12.1 288 9.6
2009-06-05 06:48:27 51°14.834 2°53.157 294.8 12.1 288 9.6
2009-06-05 06:48:32 51°14.84 2°53.132 295.3 12 290 9.3
2009-06-05 06:48:37 51°14.845 2°53.107 295.2 12 288 9.3
2009-06-05 06:48:42 51°14.85 2°53.082 294.8 12 289 9.4
2009-06-05 06:48:47 51°14.856 2°53.057 295 12 289 9.4
2009-06-05 06:48:52 51°14.861 2°53.032 294.4 12 288 9.5
2009-06-05 06:48:57 51°14.866 2°53.006 294.7 11.9 289 9.4
2009-06-05 06:49:02 51°14.871 2°52.981 294.8 11.9 289 9.6
2009-06-05 06:49:07 51°14.877 2°52.956 295 11.9 290 9.6
2009-06-05 06:49:12 51°14.882 2°52.932 295.3 11.9 289 9.7
2009-06-05 06:49:17 51°14.887 2°52.906 294.7 11.9 288 9.6
2009-06-05 06:49:22 51°14.893 2°52.882 294.8 11.9 289 9.8
2009-06-05 06:49:27 51°14.898 2°52.857 295.6 11.8 290 10.1
2009-06-05 06:49:32 51°14.904 2°52.832 295.1 11.8 288 9.7
2009-06-05 06:49:37 51°14.908 2°52.807 294.5 11.9 289 10.1
2009-06-05 06:49:42 51°14.914 2°52.782 294.8 11.9 289 10.1
2009-06-05 06:49:47 51°14.919 2°52.757 294.8 11.9 288 10.1
2009-06-05 06:49:52 51°14.925 2°52.732 295.2 11.8 290 9.8
2009-06-05 06:49:57 51°14.931 2°52.708 296.1 11.9 290 10.3
2009-06-05 06:50:02 51°14.936 2°52.683 296.2 12 290 10.4
2009-06-05 06:50:07 51°14.942 2°52.658 296.9 12 291 9.8
2009-06-05 06:50:12 51°14.948 2°52.634 297.4 11.8 291 10.3
2009-06-05 06:50:17 51°14.954 2°52.609 297.4 11.9 290 10.3
2009-06-05 06:50:22 51°14.96 2°52.585 297.7 11.8 292 10.2
2009-06-05 06:50:27 51°14.966 2°52.561 298.2 11.8 292 9.7
2009-06-05 06:50:32 51°14.972 2°52.537 297.9 11.6 291 9.4
2009-06-05 06:50:37 51°14.978 2°52.513 297.9 11.7 294 9.8
2009-06-05 06:50:42 51°14.985 2°52.489 299.1 11.7 294 9.9
2009-06-05 06:50:47 51°14.991 2°52.465 299.9 11.7 293 9.5
2009-06-05 06:50:52 51°14.998 2°52.442 300.6 11.7 295 10
2009-06-05 06:50:57 51°15.005 2°52.419 302.1 11.6 296 10.3
2009-06-05 06:51:02 51°15.012 2°52.396 302.7 11.7 296 10.3
2009-06-05 06:51:07 51°15.02 2°52.373 303 11.7 297 10.1
2009-06-05 06:51:12 51°15.027 2°52.35 302.8 11.7 295 10.1
2009-06-05 06:51:17 51°15.034 2°52.326 302.7 11.7 296 10.3
2009-06-05 06:51:22 51°15.041 2°52.303 303.5 11.8 296 10.5
2009-06-05 06:51:27 51°15.049 2°52.28 304.4 11.8 298 10.6
2009-06-05 06:51:32 51°15.056 2°52.256 304.4 11.9 296 10.5
2009-06-05 06:51:37 51°15.064 2°52.233 304.2 11.9 297 10.6
2009-06-05 06:51:42 51°15.071 2°52.209 303.8 11.9 296 10.6
2009-06-05 06:51:47 51°15.078 2°52.185 303.9 11.9 297 10.5
2009-06-05 06:51:52 51°15.086 2°52.162 303.5 11.9 296 10.3
2009-06-05 06:51:57 51°15.093 2°52.138 303.3 11.9 296 10.4
2009-06-05 06:52:02 51°15.1 2°52.114 303.4 11.8 297 10.4
2009-06-05 06:52:07 51°15.108 2°52.091 303.5 11.8 297 10.2
2009-06-05 06:52:12 51°15.115 2°52.068 303.7 11.8 297 10.5
2009-06-05 06:52:17 51°15.123 2°52.045 303.5 11.8 297 10.7
2009-06-05 06:52:22 51°15.13 2°52.022 304 11.7 297 10.7
2009-06-05 06:52:27 51°15.137 2°51.998 303.7 11.8 296 10.9
2009-06-05 06:52:32 51°15.145 2°51.975 303.7 11.9 297 10.9
2009-06-05 06:52:37 51°15.152 2°51.951 303.8 11.9 296 10.9
2009-06-05 06:52:42 51°15.16 2°51.927 303.5 11.9 296 11
2009-06-05 06:52:47 51°15.167 2°51.904 302.9 11.9 295 10.8
2009-06-05 06:52:52 51°15.174 2°51.88 302.7 11.9 296 11.2
2009-06-05 06:52:57 51°15.181 2°51.856 302.7 12 296 11.3
2009-06-05 06:53:02 51°15.188 2°51.832 303.1 12 296 11.3
2009-06-05 06:53:07 51°15.195 2°51.808 303.5 11.9 296 11.5
2009-06-05 06:53:12 51°15.202 2°51.785 303.1 11.9 294 12.3
2009-06-05 06:53:17 51°15.21 2°51.761 303.7 11.9 295 12.2
2009-06-05 06:53:22 51°15.217 2°51.737 303.3 11.9 295 12
2009-06-05 06:53:27 51°15.225 2°51.714 303.7 11.8 298 12
2009-06-05 06:53:32 51°15.231 2°51.69 303.4 11.9 295 11.9
2009-06-05 06:53:37 51°15.239 2°51.666 303.5 11.7 297 11.3
2009-06-05 06:53:42 51°15.245 2°51.642 301.7 11.9 289 11.5
2009-06-05 06:53:47 51°15.25 2°51.617 297.7 12 289 11.7
2009-06-05 06:53:52 51°15.255 2°51.592 297.3 12 289 11.9
2009-06-05 06:53:57 51°15.26 2°51.566 295.5 12.1 287 12
2009-06-05 06:54:02 51°15.265 2°51.541 294.7 12.2 286 12.2
2009-06-05 06:54:07 51°15.27 2°51.515 294 12.1 286 12.2
2009-06-05 06:54:12 51°15.275 2°51.489 293.4 12.2 286 11.8
2009-06-05 06:54:18 51°15.28 2°51.457 292.8 12.2 284 12.1
2009-06-05 06:54:22 51°15.283 2°51.436 291.8 12.2 285 11.8
2009-06-05 06:54:27 51°15.287 2°51.409 291.2 12.3 283 11.5
2009-06-05 06:54:32 51°15.29 2°51.382 290 12.4 281 11.8
2009-06-05 06:54:37 51°15.294 2°51.356 290.2 12.5 282 12.1
2009-06-05 06:54:42 51°15.297 2°51.329 290.4 12.4 282 12
2009-06-05 06:54:47 51°15.301 2°51.302 290.7 12.4 284 12
2009-06-05 06:54:52 51°15.306 2°51.276 290.8 12.4 284 11.9
2009-06-05 06:54:57 51°15.309 2°51.249 290.5 12.5 282 12.4
2009-06-05 06:55:02 51°15.313 2°51.222 290.1 12.5 283 12.7
2009-06-05 06:55:07 51°15.317 2°51.195 290.4 12.4 282 12.3
2009-06-05 06:55:12 51°15.32 2°51.168 289.6 12.3 281 12.4
2009-06-05 06:55:17 51°15.324 2°51.142 289 12.2 283 12.5
2009-06-05 06:55:22 51°15.327 2°51.116 288.9 12.3 281 12.5
2009-06-05 06:55:27 51°15.331 2°51.089 288.5 12.2 283 12.2
2009-06-05 06:55:32 51°15.334 2°51.063 288.2 12.1 281 12.7
2009-06-05 06:55:37 51°15.338 2°51.037 288.3 12.1 282 12.8
2009-06-05 06:55:42 51°15.342 2°51.01 288.7 12.1 283 12.3
2009-06-05 06:55:47 51°15.345 2°50.984 288.6 12.1 282 12.3
2009-06-05 06:55:52 51°15.348 2°50.958 288.4 12.1 282 12.9
2009-06-05 06:55:57 51°15.353 2°50.932 289.6 12.1 284 12.5
2009-06-05 06:56:02 51°15.356 2°50.906 289.7 12.1 283 12.6
2009-06-05 06:56:07 51°15.36 2°50.88 290.3 12.1 284 12.4
2009-06-05 06:56:12 51°15.364 2°50.854 290.3 12 283 12.1
2009-06-05 06:56:17 51°15.368 2°50.828 289.4 12 284 12.5
2009-06-05 06:56:22 51°15.372 2°50.802 289.3 12 283 12.5
2009-06-05 06:56:27 51°15.375 2°50.777 289.3 12 282 12.2
2009-06-05 06:56:32 51°15.379 2°50.751 289.2 11.9 284 12.5
2009-06-05 06:56:37 51°15.382 2°50.725 289.2 12 281 13.1
2009-06-05 06:56:42 51°15.386 2°50.699 289 12 282 12.6
2009-06-05 06:56:47 51°15.39 2°50.673 289 12 283 12.3
2009-06-05 06:56:52 51°15.393 2°50.647 289.1 12 283 12.5
2009-06-05 06:56:57 51°15.397 2°50.622 289 12 284 12.9
2009-06-05 06:57:02 51°15.401 2°50.595 288.8 12.1 282 13
2009-06-05 06:57:07 51°15.405 2°50.57 290.1 12 285 12.6
2009-06-05 06:57:12 51°15.409 2°50.544 290.6 12.1 283 12.6
2009-06-05 06:57:17 51°15.413 2°50.518 290.1 12.1 284 12.8
2009-06-05 06:57:22 51°15.417 2°50.492 289.5 12.1 282 12.9
2009-06-05 06:57:27 51°15.421 2°50.466 289.6 12 285 12.8
2009-06-05 06:57:32 51°15.424 2°50.44 289.7 12.2 282 13.4
2009-06-05 06:57:37 51°15.429 2°50.414 290 12.1 284 12.8
2009-06-05 06:57:42 51°15.432 2°50.388 289.5 12.1 282 13.1
2009-06-05 06:57:47 51°15.436 2°50.362 289.4 12 284 12.7
2009-06-05 06:57:52 51°15.44 2°50.336 289.7 12 282 12.6
2009-06-05 06:57:57 51°15.444 2°50.31 289.1 12.1 285 12.4
2009-06-05 06:58:02 51°15.447 2°50.283 289.2 12.1 283 13
2009-06-05 06:58:07 51°15.451 2°50.258 289.7 12.1 283 12.8
2009-06-05 06:58:12 51°15.455 2°50.231 289.6 12.2 283 12.9
2009-06-05 06:58:17 51°15.459 2°50.205 289.9 12.2 284 12.7
2009-06-05 06:58:22 51°15.462 2°50.179 290 12.3 281 12.9
2009-06-05 06:58:27 51°15.467 2°50.153 290.1 12.2 284 12.8
2009-06-05 06:58:32 51°15.471 2°50.127 290.7 12.3 283 13
2009-06-05 06:58:37 51°15.475 2°50.1 290.2 12.2 285 12.4
2009-06-05 06:58:42 51°15.478 2°50.074 290.1 12.2 283 12.6
2009-06-05 06:58:47 51°15.482 2°50.048 289.4 12.3 283 12.9
2009-06-05 06:58:52 51°15.487 2°50.022 290.3 12.2 284 12.6
2009-06-05 06:58:57 51°15.491 2°49.996 290 12.2 285 12.1
2009-06-05 06:59:02 51°15.495 2°49.97 290.6 12.2 284 12.8
2009-06-05 06:59:07 51°15.499 2°49.944 290.7 12.2 284 12.9
2009-06-05 06:59:12 51°15.504 2°49.918 291.4 12.2 286 12.8
2009-06-05 06:59:17 51°15.508 2°49.892 291.7 12.3 284 13.1
2009-06-05 06:59:22 51°15.513 2°49.866 291.1 12.1 287 12.6
2009-06-05 06:59:27 51°15.516 2°49.839 290.8 12.2 282 13
2009-06-05 06:59:32 51°15.52 2°49.813 290.2 12.2 282 13.7
2009-06-05 06:59:37 51°15.525 2°49.788 291.1 12.1 286 13.1
2009-06-05 06:59:42 51°15.529 2°49.761 291.1 12.1 284 12.5
2009-06-05 06:59:47 51°15.533 2°49.736 290.9 12 286 12.8
2009-06-05 06:59:52 51°15.537 2°49.71 290.4 12.3 281 13.3
2009-06-05 06:59:57 51°15.542 2°49.684 291 12.1 288 12.9
2009-06-05 07:00:02 51°15.545 2°49.658 290.3 12.2 282 13.2
2009-06-05 07:00:07 51°15.55 2°49.632 290.9 12.1 287 13.2
2009-06-05 07:00:12 51°15.553 2°49.606 290.4 12.1 282 12.7
2009-06-05 07:00:17 51°15.558 2°49.58 290.1 12 285 12.6
2009-06-05 07:00:22 51°15.562 2°49.554 289.7 12.1 285 12.7
2009-06-05 07:00:27 51°15.566 2°49.528 290.3 12.1 285 13.2
2009-06-05 07:00:32 51°15.57 2°49.503 290.6 12.1 284 12.8
2009-06-05 07:00:37 51°15.575 2°49.477 291.1 12 287 12.5
2009-06-05 07:00:42 51°15.579 2°49.451 291.1 12 284 12.3
2009-06-05 07:00:47 51°15.583 2°49.425 290 12.1 284 12.8
2009-06-05 07:00:52 51°15.587 2°49.399 290.1 12.1 283 12.6
2009-06-05 07:00:57 51°15.591 2°49.374 290.1 11.9 284 11.8
2009-06-05 07:01:02 51°15.596 2°49.349 289.9 11.9 285 11.9
2009-06-05 07:01:07 51°15.599 2°49.323 290 12 284 11.8
2009-06-05 07:01:12 51°15.603 2°49.297 289.5 12.1 283 11.5
2009-06-05 07:01:17 51°15.608 2°49.272 289.7 12 285 11.6
2009-06-05 07:01:22 51°15.612 2°49.246 290.1 11.9 284 11.1
2009-06-05 07:01:27 51°15.615 2°49.22 289.3 11.9 283 11.1
2009-06-05 07:01:32 51°15.619 2°49.195 289.4 11.9 283 11.3
2009-06-05 07:01:37 51°15.623 2°49.169 289.3 12 283 10.9
2009-06-05 07:01:42 51°15.627 2°49.143 289.5 11.9 284 10.8
2009-06-05 07:01:47 51°15.631 2°49.118 289.7 12 285 10.5
2009-06-05 07:01:52 51°15.635 2°49.092 289.7 12 283 10.8
2009-06-05 07:01:57 51°15.639 2°49.067 289.7 12 284 10.8
2009-06-05 07:02:02 51°15.643 2°49.041 290 12 284 10.9
2009-06-05 07:02:07 51°15.647 2°49.015 289.9 11.9 284 10.5
2009-06-05 07:02:12 51°15.652 2°48.99 290.8 11.8 286 10.5
2009-06-05 07:02:17 51°15.656 2°48.965 290.9 11.8 285 10.3
2009-06-05 07:02:22 51°15.66 2°48.939 290.4 11.8 285 10.1
2009-06-05 07:02:27 51°15.664 2°48.914 290.2 11.9 286 9.8
2009-06-05 07:02:32 51°15.668 2°48.888 289.7 11.9 283 9.9
2009-06-05 07:02:37 51°15.672 2°48.863 288.6 11.8 283 9.9
2009-06-05 07:02:42 51°15.674 2°48.837 286.1 11.9 278 10.3
2009-06-05 07:02:47 51°15.677 2°48.811 285.7 11.9 282 10.3
2009-06-05 07:02:52 51°15.679 2°48.785 284.4 11.9 277 10.4
2009-06-05 07:02:57 51°15.681 2°48.759 282 11.9 275 10.9
2009-06-05 07:03:02 51°15.683 2°48.733 282.4 12 277 10.7
2009-06-05 07:03:07 51°15.684 2°48.706 281 12.1 273 10.6
2009-06-05 07:03:12 51°15.685 2°48.679 278.6 12.1 273 10.9
2009-06-05 07:03:17 51°15.686 2°48.653 278.3 12 273 10.4
2009-06-05 07:03:22 51°15.686 2°48.626 276.6 12.1 270 10.8
2009-06-05 07:03:27 51°15.687 2°48.599 275.9 12.1 272 10.9
2009-06-05 07:03:32 51°15.686 2°48.572 275.4 12.2 270 10.8
2009-06-05 07:03:37 51°15.687 2°48.545 274.6 12.2 271 10.6
2009-06-05 07:03:42 51°15.686 2°48.518 274.3 12.2 269 11
2009-06-05 07:03:47 51°15.685 2°48.491 273.5 12.3 268 10.8
2009-06-05 07:03:52 51°15.685 2°48.464 273.8 12.2 270 10.7
2009-06-05 07:03:57 51°15.685 2°48.437 273.4 12.2 268 11.1
2009-06-05 07:04:02 51°15.685 2°48.41 273.9 12.2 270 10.8
2009-06-05 07:04:07 51°15.684 2°48.383 273.5 12.3 268 10.9
2009-06-05 07:04:12 51°15.684 2°48.356 273.2 12.3 267 11.2
2009-06-05 07:04:17 51°15.683 2°48.328 273 12.3 269 11.4
2009-06-05 07:04:22 51°15.684 2°48.301 273.9 12.3 269 11
2009-06-05 07:04:27 51°15.683 2°48.274 273.7 12.4 269 11.1
2009-06-05 07:04:32 51°15.682 2°48.247 273 12.4 267 11.7
2009-06-05 07:04:37 51°15.682 2°48.219 273.3 12.4 269 11.6
2009-06-05 07:04:42 51°15.681 2°48.192 273.6 12.4 269 11.8
2009-06-05 07:04:47 51°15.681 2°48.165 272.8 12.4 268 11.6
2009-06-05 07:04:52 51°15.681 2°48.138 274.7 12.2 274 11.7
2009-06-05 07:04:57 51°15.683 2°48.11 277.4 12.3 272 12
2009-06-05 07:05:02 51°15.684 2°48.083 277.5 12.3 274 11.9
2009-06-05 07:05:07 51°15.685 2°48.056 279.7 12.2 276 12.1
2009-06-05 07:05:12 51°15.687 2°48.029 280.2 12.2 275 12.2
2009-06-05 07:05:17 51°15.689 2°48.002 281.7 12.2 278 12.2
2009-06-05 07:05:22 51°15.69 2°47.975 281.4 12.3 275 12.9
2009-06-05 07:05:27 51°15.693 2°47.948 281.8 12.2 278 12.3
2009-06-05 07:05:32 51°15.695 2°47.922 282.6 12.2 277 12.6
2009-06-05 07:05:37 51°15.697 2°47.895 283.1 12.2 280 13
2009-06-05 07:05:42 51°15.701 2°47.869 286.1 12.2 281 13
2009-06-05 07:05:47 51°15.704 2°47.843 287.1 12.2 281 12.8
2009-06-05 07:05:52 51°15.708 2°47.817 288.7 12.1 284 12.9
2009-06-05 07:05:57 51°15.712 2°47.791 289.6 12.1 284 13.3
2009-06-05 07:06:02 51°15.716 2°47.765 290.3 12.1 286 13.5
2009-06-05 07:06:07 51°15.721 2°47.739 291.3 12.2 285 13.4
2009-06-05 07:06:12 51°15.725 2°47.713 291.1 12.2 285 14
2009-06-05 07:06:17 51°15.73 2°47.687 292.1 12.3 286 14.5
2009-06-05 07:06:22 51°15.735 2°47.661 293 12.1 285 14.1
2009-06-05 07:06:27 51°15.74 2°47.636 293.3 12.1 288 13.9
2009-06-05 07:06:32 51°15.745 2°47.61 293.8 12.1 287 14.2
2009-06-05 07:06:37 51°15.749 2°47.585 293.2 12 287 14.5
2009-06-05 07:06:42 51°15.755 2°47.559 294 12.1 287 14.6
2009-06-05 07:06:47 51°15.759 2°47.533 293.9 12.2 287 14.6
2009-06-05 07:06:52 51°15.764 2°47.507 293.5 12.2 286 14.7
2009-06-05 07:06:57 51°15.77 2°47.482 293.6 12.2 287 14.5
2009-06-05 07:07:02 51°15.774 2°47.456 293.3 12.2 286 15
2009-06-05 07:07:07 51°15.779 2°47.43 293.1 12.2 287 15.3
2009-06-05 07:07:12 51°15.784 2°47.404 293.4 12.3 287 15.4
2009-06-05 07:07:17 51°15.789 2°47.378 293.3 12.3 287 15.4
2009-06-05 07:07:22 51°15.793 2°47.352 293.3 12.3 286 15.9
2009-06-05 07:07:27 51°15.799 2°47.327 293.1 12.2 288 15.6
2009-06-05 07:07:32 51°15.804 2°47.301 293.3 12.2 287 16
2009-06-05 07:07:37 51°15.809 2°47.275 293.3 12.2 287 15.7
2009-06-05 07:07:42 51°15.813 2°47.249 293.1 12.2 288 16
2009-06-05 07:07:47 51°15.818 2°47.223 293.3 12.2 286 16.3
2009-06-05 07:07:51 51°15.824 2°47.203 294 12.2 289 16.5
2009-06-05 07:07:57 51°15.829 2°47.172 294 12.2 288 16.8
2009-06-05 07:08:02 51°15.834 2°47.147 293.9 12.1 287 16.7
2009-06-05 07:08:07 51°15.839 2°47.121 293.2 12 288 16.7
2009-06-05 07:08:12 51°15.844 2°47.096 292.9 12.2 287 16.5
2009-06-05 07:08:17 51°15.849 2°47.07 293 12.1 287 16.3
2009-06-05 07:08:22 51°15.855 2°47.045 293.3 12 288 16.3
2009-06-05 07:08:27 51°15.86 2°47.019 292.7 12.1 288 16.2
2009-06-05 07:08:32 51°15.864 2°46.994 292.8 12 287 16.5
2009-06-05 07:08:37 51°15.87 2°46.969 293 12.1 287 16.4
2009-06-05 07:08:42 51°15.874 2°46.943 292.2 12.1 288 17.1
2009-06-05 07:08:47 51°15.88 2°46.918 292.9 12.1 288 16.8
2009-06-05 07:08:52 51°15.884 2°46.892 291.5 12 288 16.7
2009-06-05 07:08:57 51°15.89 2°46.867 293 12.1 287 17
2009-06-05 07:09:02 51°15.894 2°46.841 291.8 12 287 16.9
2009-06-05 07:09:07 51°15.9 2°46.816 293.3 12 291 16.2
2009-06-05 07:09:12 51°15.904 2°46.79 292.3 11.9 287 16.3
2009-06-05 07:09:17 51°15.91 2°46.766 292.6 12 287 16.6
2009-06-05 07:09:22 51°15.914 2°46.74 292.5 12 288 16.4
2009-06-05 07:09:27 51°15.92 2°46.715 293.3 11.9 290 16.3
2009-06-05 07:09:32 51°15.924 2°46.689 292.4 12 287 16.2
2009-06-05 07:09:37 51°15.93 2°46.664 292.9 12 289 15.8
2009-06-05 07:09:42 51°15.934 2°46.638 292.6 12 287 16.3
2009-06-05 07:09:47 51°15.94 2°46.614 293.5 11.9 290 15.9
2009-06-05 07:09:51 51°15.944 2°46.593 292.9 12.1 285 16
2009-06-05 07:09:57 51°15.95 2°46.563 292.8 11.9 290 15.8
2009-06-05 07:10:02 51°15.955 2°46.538 292.9 11.9 286 16
2009-06-05 07:10:07 51°15.96 2°46.513 292.6 11.9 288 15.3
2009-06-05 07:10:12 51°15.965 2°46.488 292.6 11.9 289 15.1
2009-06-05 07:10:17 51°15.97 2°46.462 293 11.9 286 15.1
2009-06-05 07:10:22 51°15.975 2°46.437 291.6 11.9 291 14.9
2009-06-05 07:10:27 51°15.98 2°46.412 293.3 12 288 14.7
2009-06-05 07:10:32 51°15.985 2°46.387 292.7 12 288 14.3
2009-06-05 07:10:37 51°15.99 2°46.362 293.5 11.8 288 14.1
2009-06-05 07:10:42 51°15.995 2°46.337 293.1 11.9 286 14.4
2009-06-05 07:10:47 51°16 2°46.312 292.6 11.9 289 14
2009-06-05 07:10:52 51°16.006 2°46.287 295 11.9 288 14.4
2009-06-05 07:10:57 51°16.011 2°46.262 294.3 11.9 287 14.4
2009-06-05 07:11:02 51°16.017 2°46.239 295.2 11.7 293 13.3
2009-06-05 07:11:07 51°16.022 2°46.214 296.5 11.8 290 12.8
2009-06-05 07:11:12 51°16.028 2°46.189 295.9 11.8 291 12.2
2009-06-05 07:11:17 51°16.034 2°46.165 296.3 11.8 291 12.4
2009-06-05 07:11:22 51°16.04 2°46.141 296.3 11.6 293 12.3
2009-06-05 07:11:27 51°16.046 2°46.116 296.7 11.8 289 12.7
2009-06-05 07:11:32 51°16.052 2°46.093 296.8 11.5 295 12.1
2009-06-05 07:11:37 51°16.058 2°46.068 296.9 11.8 288 12.5
2009-06-05 07:11:42 51°16.064 2°46.044 297.1 11.7 295 12.4
2009-06-05 07:11:47 51°16.069 2°46.02 297.7 11.8 289 12.3
2009-06-05 07:11:51 51°16.074 2°46.001 297.4 11.5 295 11.7
2009-06-05 07:11:57 51°16.081 2°45.972 297.4 11.7 289 12.3
2009-06-05 07:12:02 51°16.088 2°45.949 297.4 11.6 294 11.6
2009-06-05 07:12:07 51°16.094 2°45.925 297.6 11.6 292 11.4
2009-06-05 07:12:12 51°16.1 2°45.901 297.7 11.7 292 11.6
2009-06-05 07:12:17 51°16.106 2°45.877 297.8 11.7 294 11.4
2009-06-05 07:12:22 51°16.113 2°45.853 299.5 11.6 293 11.3
2009-06-05 07:12:27 51°16.12 2°45.831 299.6 11.5 297 11.3
2009-06-05 07:12:32 51°16.126 2°45.807 300.5 11.6 294 11.4
2009-06-05 07:12:37 51°16.134 2°45.785 300.7 11.6 299 11.5
2009-06-05 07:12:42 51°16.14 2°45.761 301.7 11.5 294 10.9
2009-06-05 07:12:47 51°16.148 2°45.739 302 11.5 297 11.2
2009-06-05 07:12:52 51°16.155 2°45.716 302.7 11.5 297 11.2
2009-06-05 07:12:57 51°16.163 2°45.694 303.6 11.5 299 10.7
2009-06-05 07:13:02 51°16.17 2°45.671 303.2 11.4 298 11
2009-06-05 07:13:07 51°16.177 2°45.649 304.2 11.4 298 11.5
2009-06-05 07:13:12 51°16.185 2°45.626 303.8 11.5 297 11
2009-06-05 07:13:17 51°16.192 2°45.604 303.9 11.5 298 10.8
2009-06-05 07:13:22 51°16.199 2°45.581 303.9 11.6 296 10.7
2009-06-05 07:13:27 51°16.207 2°45.558 303.9 11.5 298 10.3
2009-06-05 07:13:32 51°16.214 2°45.536 304.2 11.5 297 10.4
2009-06-05 07:13:37 51°16.221 2°45.513 304.3 11.4 298 10.4
2009-06-05 07:13:42 51°16.229 2°45.491 304.6 11.4 296 10.1
2009-06-05 07:13:47 51°16.236 2°45.468 303.7 11.3 297 9.8
2009-06-05 07:13:52 51°16.243 2°45.446 303.4 11.5 296 10.9
2009-06-05 07:13:57 51°16.25 2°45.423 303.4 11.4 298 10.6
2009-06-05 07:14:02 51°16.257 2°45.401 303.8 11.4 296 10.7
2009-06-05 07:14:07 51°16.264 2°45.378 303.5 11.4 296 10.9
2009-06-05 07:14:12 51°16.272 2°45.356 303.8 11.4 298 10.9
2009-06-05 07:14:17 51°16.279 2°45.333 304.2 11.5 297 11.4
2009-06-05 07:14:22 51°16.286 2°45.31 303.8 11.5 296 11.2
2009-06-05 07:14:27 51°16.293 2°45.287 304.1 11.4 296 11.2
2009-06-05 07:14:32 51°16.3 2°45.265 303.9 11.5 298 11.4
2009-06-05 07:14:37 51°16.308 2°45.241 304.6 11.5 296 10.6
2009-06-05 07:14:42 51°16.314 2°45.219 304.8 11.4 296 10.9
2009-06-05 07:14:47 51°16.321 2°45.196 303.1 11.4 295 11
2009-06-05 07:14:52 51°16.329 2°45.174 304 11.5 298 11.1
2009-06-05 07:14:57 51°16.336 2°45.151 304.5 11.5 295 11
2009-06-05 07:15:02 51°16.343 2°45.128 303.7 11.5 296 11.3
2009-06-05 07:15:07 51°16.349 2°45.105 303.5 11.4 295 11.5